sensor_id;sensor_type;location;lat;lon;timestamp;pressure;altitude;pressure_sealevel;temperature;humidity
24858;BME280;12935;50.782;6.074;2023-01-31T00:01:32;100420.19;;;3.40;100.00
24858;BME280;12935;50.782;6.074;2023-01-31T00:04:00;100420.84;;;3.37;100.00
24858;BME280;12935;50.782;6.074;2023-01-31T00:06:28;100417.16;;;3.41;100.00
24858;BME280;12935;50.782;6.074;2023-01-31T00:08:55;100419.56;;;3.43;100.00
24858;BME280;12935;50.782;6.074;2023-01-31T00:11:23;100396.88;;;3.27;100.00
24858;BME280;12935;50.782;6.074;2023-01-31T00:13:49;100409.72;;;3.38;100.00
24858;BME280;12935;50.782;6.074;2023-01-31T00:16:15;100400.31;;;3.44;100.00
24858;BME280;12935;50.782;6.074;2023-01-31T00:18:41;100403.63;;;3.50;100.00
24858;BME280;12935;50.782;6.074;2023-01-31T00:21:08;100422.63;;;3.62;100.00
24858;BME280;12935;50.782;6.074;2023-01-31T00:23:35;100422.53;;;3.50;100.00
24858;BME280;12935;50.782;6.074;2023-01-31T00:26:12;100412.19;;;3.52;100.00
24858;BME280;12935;50.782;6.074;2023-01-31T00:28:38;100421.56;;;3.55;100.00
24858;BME280;12935;50.782;6.074;2023-01-31T00:31:04;100417.44;;;3.48;100.00
24858;BME280;12935;50.782;6.074;2023-01-31T00:33:30;100422.84;;;3.48;100.00
24858;BME280;12935;50.782;6.074;2023-01-31T00:35:55;100406.38;;;3.41;100.00
24858;BME280;12935;50.782;6.074;2023-01-31T00:38:20;100414.31;;;3.38;100.00
24858;BME280;12935;50.782;6.074;2023-01-31T00:40:52;100417.16;;;3.41;100.00
24858;BME280;12935;50.782;6.074;2023-01-31T00:43:18;100407.78;;;3.39;100.00
24858;BME280;12935;50.782;6.074;2023-01-31T00:45:43;100406.53;;;3.36;100.00
24858;BME280;12935;50.782;6.074;2023-01-31T00:48:09;100407.47;;;3.40;100.00
24858;BME280;12935;50.782;6.074;2023-01-31T00:50:34;100416.00;;;3.51;100.00
24858;BME280;12935;50.782;6.074;2023-01-31T00:52:59;100404.59;;;3.45;100.00
24858;BME280;12935;50.782;6.074;2023-01-31T00:55:25;100414.56;;;3.53;100.00
24858;BME280;12935;50.782;6.074;2023-01-31T00:57:50;100410.38;;;3.65;100.00
24858;BME280;12935;50.782;6.074;2023-01-31T01:00:16;100415.69;;;3.61;100.00
24858;BME280;12935;50.782;6.074;2023-01-31T01:02:41;100412.81;;;3.58;100.00
24858;BME280;12935;50.782;6.074;2023-01-31T01:05:07;100403.22;;;3.69;100.00
24858;BME280;12935;50.782;6.074;2023-01-31T01:07:32;100399.00;;;3.59;100.00
24858;BME280;12935;50.782;6.074;2023-01-31T01:09:57;100406.16;;;3.46;100.00
24858;BME280;12935;50.782;6.074;2023-01-31T01:12:22;100410.66;;;3.42;100.00
24858;BME280;12935;50.782;6.074;2023-01-31T01:14:48;100407.75;;;3.47;100.00
24858;BME280;12935;50.782;6.074;2023-01-31T01:17:13;100415.53;;;3.49;100.00
24858;BME280;12935;50.782;6.074;2023-01-31T01:19:38;100406.31;;;3.50;100.00
24858;BME280;12935;50.782;6.074;2023-01-31T01:22:04;100411.88;;;3.53;100.00
24858;BME280;12935;50.782;6.074;2023-01-31T01:24:29;100402.34;;;3.56;100.00
24858;BME280;12935;50.782;6.074;2023-01-31T01:26:54;100406.31;;;3.59;100.00
24858;BME280;12935;50.782;6.074;2023-01-31T01:29:20;100407.75;;;3.56;100.00
24858;BME280;12935;50.782;6.074;2023-01-31T01:31:45;100407.38;;;3.66;100.00
24858;BME280;12935;50.782;6.074;2023-01-31T01:34:12;100408.38;;;3.62;100.00
24858;BME280;12935;50.782;6.074;2023-01-31T01:36:38;100404.41;;;3.50;100.00
24858;BME280;12935;50.782;6.074;2023-01-31T01:39:07;100404.56;;;3.54;100.00
24858;BME280;12935;50.782;6.074;2023-01-31T01:41:36;100410.59;;;3.51;100.00
24858;BME280;12935;50.782;6.074;2023-01-31T01:44:40;100418.56;;;3.47;100.00
24858;BME280;12935;50.782;6.074;2023-01-31T01:46:49;100412.84;;;3.49;100.00
24858;BME280;12935;50.782;6.074;2023-01-31T01:49:27;100415.41;;;3.45;100.00
24858;BME280;12935;50.782;6.074;2023-01-31T01:51:57;100413.00;;;3.52;100.00
24858;BME280;12935;50.782;6.074;2023-01-31T01:54:27;100399.66;;;3.47;100.00
24858;BME280;12935;50.782;6.074;2023-01-31T01:56:58;100398.84;;;3.56;100.00
24858;BME280;12935;50.782;6.074;2023-01-31T01:59:29;100406.66;;;3.78;100.00
24858;BME280;12935;50.782;6.074;2023-01-31T02:01:56;100397.56;;;3.62;100.00
24858;BME280;12935;50.782;6.074;2023-01-31T02:04:25;100397.13;;;3.80;100.00
24858;BME280;12935;50.782;6.074;2023-01-31T02:06:52;100398.69;;;3.90;100.00
24858;BME280;12935;50.782;6.074;2023-01-31T02:09:21;100381.44;;;3.95;100.00
24858;BME280;12935;50.782;6.074;2023-01-31T02:11:50;100378.09;;;3.98;100.00
24858;BME280;12935;50.782;6.074;2023-01-31T02:14:15;100389.56;;;3.95;100.00
24858;BME280;12935;50.782;6.074;2023-01-31T02:16:41;100381.81;;;3.93;100.00
24858;BME280;12935;50.782;6.074;2023-01-31T02:19:16;100388.59;;;3.70;100.00
24858;BME280;12935;50.782;6.074;2023-01-31T02:27:34;100383.56;;;3.60;100.00
24858;BME280;12935;50.782;6.074;2023-01-31T02:32:59;100386.44;;;3.55;100.00
24858;BME280;12935;50.782;6.074;2023-01-31T02:35:45;100378.66;;;3.53;100.00
24858;BME280;12935;50.782;6.074;2023-01-31T02:38:41;100369.25;;;3.59;100.00
24858;BME280;12935;50.782;6.074;2023-01-31T02:41:29;100381.66;;;3.60;100.00
24858;BME280;12935;50.782;6.074;2023-01-31T02:44:09;100366.88;;;3.58;100.00
24858;BME280;12935;50.782;6.074;2023-01-31T02:47:00;100380.53;;;3.61;100.00
24858;BME280;12935;50.782;6.074;2023-01-31T02:49:34;100372.09;;;3.63;100.00
24858;BME280;12935;50.782;6.074;2023-01-31T02:52:19;100363.47;;;3.40;100.00
24858;BME280;12935;50.782;6.074;2023-01-31T02:54:51;100369.59;;;3.49;100.00
24858;BME280;12935;50.782;6.074;2023-01-31T02:57:38;100371.50;;;3.57;100.00
24858;BME280;12935;50.782;6.074;2023-01-31T03:00:05;100375.94;;;3.62;100.00
24858;BME280;12935;50.782;6.074;2023-01-31T03:02:32;100375.00;;;3.49;100.00
24858;BME280;12935;50.782;6.074;2023-01-31T03:04:57;100383.28;;;3.52;100.00
24858;BME280;12935;50.782;6.074;2023-01-31T03:07:26;100385.94;;;3.61;100.00
24858;BME280;12935;50.782;6.074;2023-01-31T03:10:09;100381.41;;;3.44;100.00
24858;BME280;12935;50.782;6.074;2023-01-31T03:12:46;100375.06;;;3.40;100.00
24858;BME280;12935;50.782;6.074;2023-01-31T03:18:07;100368.56;;;3.33;100.00
24858;BME280;12935;50.782;6.074;2023-01-31T03:20:42;100367.75;;;3.32;100.00
24858;BME280;12935;50.782;6.074;2023-01-31T03:23:21;100367.13;;;3.35;100.00
24858;BME280;12935;50.782;6.074;2023-01-31T03:25:49;100369.97;;;3.39;100.00
24858;BME280;12935;50.782;6.074;2023-01-31T03:28:20;100356.16;;;3.32;100.00
24858;BME280;12935;50.782;6.074;2023-01-31T03:30:51;100367.44;;;3.42;100.00
24858;BME280;12935;50.782;6.074;2023-01-31T03:33:23;100358.16;;;3.52;100.00
24858;BME280;12935;50.782;6.074;2023-01-31T03:35:56;100356.16;;;3.40;100.00
24858;BME280;12935;50.782;6.074;2023-01-31T03:38:35;100359.13;;;3.47;100.00
24858;BME280;12935;50.782;6.074;2023-01-31T03:41:20;100353.28;;;3.45;100.00
24858;BME280;12935;50.782;6.074;2023-01-31T03:43:56;100345.28;;;3.49;100.00
24858;BME280;12935;50.782;6.074;2023-01-31T03:46:31;100349.91;;;3.48;100.00
24858;BME280;12935;50.782;6.074;2023-01-31T03:48:59;100348.13;;;3.61;100.00
24858;BME280;12935;50.782;6.074;2023-01-31T03:51:30;100344.97;;;3.50;100.00
24858;BME280;12935;50.782;6.074;2023-01-31T03:54:04;100357.75;;;3.41;100.00
24858;BME280;12935;50.782;6.074;2023-01-31T03:56:40;100353.63;;;3.35;100.00
24858;BME280;12935;50.782;6.074;2023-01-31T03:59:10;100354.66;;;3.51;100.00
24858;BME280;12935;50.782;6.074;2023-01-31T04:01:42;100361.50;;;3.49;100.00
24858;BME280;12935;50.782;6.074;2023-01-31T04:04:18;100353.28;;;3.45;100.00
24858;BME280;12935;50.782;6.074;2023-01-31T04:06:45;100355.97;;;3.45;100.00
24858;BME280;12935;50.782;6.074;2023-01-31T04:09:10;100352.50;;;3.36;100.00
24858;BME280;12935;50.782;6.074;2023-01-31T04:11:37;100354.75;;;3.34;100.00
24858;BME280;12935;50.782;6.074;2023-01-31T04:14:04;100346.72;;;3.46;100.00
24858;BME280;12935;50.782;6.074;2023-01-31T04:16:29;100342.28;;;3.50;100.00
24858;BME280;12935;50.782;6.074;2023-01-31T04:18:54;100343.75;;;3.39;100.00
24858;BME280;12935;50.782;6.074;2023-01-31T04:21:21;100335.28;;;3.49;100.00
24858;BME280;12935;50.782;6.074;2023-01-31T04:23:46;100335.19;;;3.37;100.00
24858;BME280;12935;50.782;6.074;2023-01-31T04:26:11;100335.16;;;3.46;100.00
24858;BME280;12935;50.782;6.074;2023-01-31T04:28:37;100337.09;;;3.37;100.00
24858;BME280;12935;50.782;6.074;2023-01-31T04:31:02;100351.31;;;3.55;100.00
24858;BME280;12935;50.782;6.074;2023-01-31T04:33:27;100338.19;;;3.44;100.00
24858;BME280;12935;50.782;6.074;2023-01-31T04:35:53;100338.06;;;3.32;100.00
24858;BME280;12935;50.782;6.074;2023-01-31T04:38:18;100342.31;;;3.42;100.00
24858;BME280;12935;50.782;6.074;2023-01-31T04:40:43;100328.72;;;3.59;100.00
24858;BME280;12935;50.782;6.074;2023-01-31T04:43:09;100330.00;;;3.62;100.00
24858;BME280;12935;50.782;6.074;2023-01-31T04:45:34;100336.41;;;3.48;100.00
24858;BME280;12935;50.782;6.074;2023-01-31T04:47:59;100328.84;;;3.63;100.00
24858;BME280;12935;50.782;6.074;2023-01-31T04:50:25;100324.53;;;3.70;100.00
24858;BME280;12935;50.782;6.074;2023-01-31T04:52:50;100332.56;;;3.49;100.00
24858;BME280;12935;50.782;6.074;2023-01-31T04:55:16;100339.53;;;3.59;100.00
24858;BME280;12935;50.782;6.074;2023-01-31T04:57:42;100329.28;;;3.44;100.00
24858;BME280;12935;50.782;6.074;2023-01-31T05:00:08;100336.16;;;3.33;100.00
24858;BME280;12935;50.782;6.074;2023-01-31T05:02:33;100337.16;;;3.20;100.00
24858;BME280;12935;50.782;6.074;2023-01-31T05:04:59;100337.19;;;3.11;100.00
24858;BME280;12935;50.782;6.074;2023-01-31T05:07:24;100336.56;;;3.14;100.00
24858;BME280;12935;50.782;6.074;2023-01-31T05:09:49;100329.69;;;3.25;100.00
24858;BME280;12935;50.782;6.074;2023-01-31T05:12:15;100332.97;;;3.31;100.00
24858;BME280;12935;50.782;6.074;2023-01-31T05:14:40;100322.78;;;3.36;100.00
24858;BME280;12935;50.782;6.074;2023-01-31T05:17:05;100317.25;;;3.33;100.00
24858;BME280;12935;50.782;6.074;2023-01-31T05:19:31;100324.69;;;3.44;100.00
24858;BME280;12935;50.782;6.074;2023-01-31T05:21:56;100318.56;;;3.27;100.00
24858;BME280;12935;50.782;6.074;2023-01-31T05:24:30;100314.91;;;3.23;100.00
24858;BME280;12935;50.782;6.074;2023-01-31T05:26:57;100310.22;;;3.11;100.00
24858;BME280;12935;50.782;6.074;2023-01-31T05:29:27;100313.06;;;3.14;100.00
24858;BME280;12935;50.782;6.074;2023-01-31T05:31:54;100302.63;;;2.96;100.00
24858;BME280;12935;50.782;6.074;2023-01-31T05:34:21;100295.66;;;2.95;100.00
24858;BME280;12935;50.782;6.074;2023-01-31T05:36:48;100294.66;;;2.99;100.00
24858;BME280;12935;50.782;6.074;2023-01-31T05:39:13;100291.97;;;2.99;100.00
24858;BME280;12935;50.782;6.074;2023-01-31T05:41:38;100298.16;;;3.00;100.00
24858;BME280;12935;50.782;6.074;2023-01-31T05:44:04;100301.63;;;3.09;100.00
24858;BME280;12935;50.782;6.074;2023-01-31T05:46:29;100297.50;;;3.03;100.00
24858;BME280;12935;50.782;6.074;2023-01-31T05:48:55;100299.78;;;2.92;100.00
24858;BME280;12935;50.782;6.074;2023-01-31T05:51:20;100306.59;;;2.98;100.00
24858;BME280;12935;50.782;6.074;2023-01-31T05:53:45;100299.72;;;3.09;100.00
24858;BME280;12935;50.782;6.074;2023-01-31T05:56:12;100289.41;;;3.03;100.00
24858;BME280;12935;50.782;6.074;2023-01-31T05:58:38;100285.19;;;2.85;100.00
24858;BME280;12935;50.782;6.074;2023-01-31T06:01:03;100283.25;;;2.94;100.00
24858;BME280;12935;50.782;6.074;2023-01-31T06:03:28;100281.34;;;2.94;100.00
24858;BME280;12935;50.782;6.074;2023-01-31T06:05:54;100260.50;;;3.03;100.00
24858;BME280;12935;50.782;6.074;2023-01-31T06:08:19;100260.09;;;2.93;100.00
24858;BME280;12935;50.782;6.074;2023-01-31T06:10:44;100264.06;;;2.95;100.00
24858;BME280;12935;50.782;6.074;2023-01-31T06:13:10;100252.56;;;3.07;100.00
24858;BME280;12935;50.782;6.074;2023-01-31T06:15:35;100255.09;;;3.12;100.00
24858;BME280;12935;50.782;6.074;2023-01-31T06:18:02;100253.81;;;3.09;100.00
24858;BME280;12935;50.782;6.074;2023-01-31T06:20:28;100266.53;;;3.09;100.00
24858;BME280;12935;50.782;6.074;2023-01-31T06:22:53;100275.09;;;3.11;100.00
24858;BME280;12935;50.782;6.074;2023-01-31T06:25:19;100278.59;;;3.11;100.00
24858;BME280;12935;50.782;6.074;2023-01-31T06:27:44;100286.22;;;3.09;100.00
24858;BME280;12935;50.782;6.074;2023-01-31T06:30:10;100289.72;;;3.10;100.00
24858;BME280;12935;50.782;6.074;2023-01-31T06:32:35;100289.72;;;3.10;100.00
24858;BME280;12935;50.782;6.074;2023-01-31T06:35:02;100279.41;;;3.03;100.00
24858;BME280;12935;50.782;6.074;2023-01-31T06:37:27;100282.72;;;3.09;100.00
24858;BME280;12935;50.782;6.074;2023-01-31T06:39:53;100276.22;;;3.10;100.00
24858;BME280;12935;50.782;6.074;2023-01-31T06:42:18;100270.03;;;3.09;100.00
24858;BME280;12935;50.782;6.074;2023-01-31T06:44:43;100280.97;;;3.13;100.00
24858;BME280;12935;50.782;6.074;2023-01-31T06:47:08;100280.53;;;3.02;100.00
24858;BME280;12935;50.782;6.074;2023-01-31T06:49:34;100267.72;;;2.91;100.00
24858;BME280;12935;50.782;6.074;2023-01-31T06:51:59;100278.66;;;2.94;100.00
24858;BME280;12935;50.782;6.074;2023-01-31T06:54:24;100289.63;;;2.89;100.00
24858;BME280;12935;50.782;6.074;2023-01-31T06:56:49;100280.56;;;2.94;100.00
24858;BME280;12935;50.782;6.074;2023-01-31T06:59:15;100285.44;;;3.00;100.00
24858;BME280;12935;50.782;6.074;2023-01-31T07:01:40;100286.56;;;2.99;100.00
24858;BME280;12935;50.782;6.074;2023-01-31T07:04:05;100285.25;;;3.14;100.00
24858;BME280;12935;50.782;6.074;2023-01-31T07:06:31;100288.38;;;3.25;100.00
24858;BME280;12935;50.782;6.074;2023-01-31T07:08:56;100291.56;;;3.27;100.00
24858;BME280;12935;50.782;6.074;2023-01-31T07:11:21;100296.50;;;3.16;100.00
24858;BME280;12935;50.782;6.074;2023-01-31T07:13:47;100284.03;;;3.32;100.00
24858;BME280;12935;50.782;6.074;2023-01-31T07:16:13;100304.97;;;3.44;100.00
24858;BME280;12935;50.782;6.074;2023-01-31T07:18:40;100306.91;;;3.35;100.00
24858;BME280;12935;50.782;6.074;2023-01-31T07:21:06;100295.47;;;3.38;100.00
24858;BME280;12935;50.782;6.074;2023-01-31T07:23:31;100299.44;;;3.40;100.00
24858;BME280;12935;50.782;6.074;2023-01-31T07:25:56;100296.41;;;3.42;100.00
24858;BME280;12935;50.782;6.074;2023-01-31T07:28:21;100314.38;;;3.38;100.00
24858;BME280;12935;50.782;6.074;2023-01-31T07:30:47;100306.09;;;3.43;100.00
24858;BME280;12935;50.782;6.074;2023-01-31T07:33:12;100315.91;;;3.47;100.00
24858;BME280;12935;50.782;6.074;2023-01-31T07:35:38;100305.72;;;3.53;100.00
24858;BME280;12935;50.782;6.074;2023-01-31T07:38:03;100301.03;;;3.62;100.00
24858;BME280;12935;50.782;6.074;2023-01-31T07:40:28;100294.56;;;3.55;100.00
24858;BME280;12935;50.782;6.074;2023-01-31T07:42:58;100296.63;;;3.58;100.00
24858;BME280;12935;50.782;6.074;2023-01-31T07:45:24;100307.97;;;3.72;100.00
24858;BME280;12935;50.782;6.074;2023-01-31T07:47:50;100292.56;;;3.72;100.00
24858;BME280;12935;50.782;6.074;2023-01-31T07:50:15;100292.59;;;3.64;100.00
24858;BME280;12935;50.782;6.074;2023-01-31T07:52:41;100309.13;;;3.62;100.00
24858;BME280;12935;50.782;6.074;2023-01-31T07:55:06;100302.28;;;3.65;100.00
24858;BME280;12935;50.782;6.074;2023-01-31T07:57:32;100298.91;;;3.76;100.00
24858;BME280;12935;50.782;6.074;2023-01-31T07:59:57;100297.22;;;3.63;100.00
24858;BME280;12935;50.782;6.074;2023-01-31T08:02:22;100284.16;;;3.65;100.00
24858;BME280;12935;50.782;6.074;2023-01-31T08:05:07;100280.56;;;3.61;100.00
24858;BME280;12935;50.782;6.074;2023-01-31T08:07:33;100284.97;;;3.66;100.00
24858;BME280;12935;50.782;6.074;2023-01-31T08:09:58;100299.69;;;3.77;100.00
24858;BME280;12935;50.782;6.074;2023-01-31T08:12:24;100306.41;;;3.71;100.00
24858;BME280;12935;50.782;6.074;2023-01-31T08:14:49;100289.53;;;3.95;100.00
24858;BME280;12935;50.782;6.074;2023-01-31T08:17:14;100277.53;;;3.83;100.00
24858;BME280;12935;50.782;6.074;2023-01-31T08:19:39;100275.38;;;3.77;100.00
24858;BME280;12935;50.782;6.074;2023-01-31T08:22:05;100276.81;;;3.95;100.00
24858;BME280;12935;50.782;6.074;2023-01-31T08:24:31;100271.38;;;3.95;100.00
24858;BME280;12935;50.782;6.074;2023-01-31T08:26:57;100265.94;;;4.04;100.00
24858;BME280;12935;50.782;6.074;2023-01-31T08:29:23;100283.59;;;4.01;100.00
24858;BME280;12935;50.782;6.074;2023-01-31T08:31:49;100266.78;;;3.96;100.00
24858;BME280;12935;50.782;6.074;2023-01-31T08:34:14;100275.41;;;4.10;100.00
24858;BME280;12935;50.782;6.074;2023-01-31T08:36:40;100279.69;;;4.11;100.00
24858;BME280;12935;50.782;6.074;2023-01-31T08:39:05;100269.66;;;4.11;100.00
24858;BME280;12935;50.782;6.074;2023-01-31T08:41:32;100255.34;;;4.11;100.00
24858;BME280;12935;50.782;6.074;2023-01-31T08:43:58;100268.34;;;4.17;100.00
24858;BME280;12935;50.782;6.074;2023-01-31T08:46:26;100257.66;;;4.21;100.00
24858;BME280;12935;50.782;6.074;2023-01-31T08:48:51;100266.13;;;4.19;100.00
24858;BME280;12935;50.782;6.074;2023-01-31T08:51:17;100275.53;;;4.13;100.00
24858;BME280;12935;50.782;6.074;2023-01-31T08:53:43;100273.09;;;4.20;100.00
24858;BME280;12935;50.782;6.074;2023-01-31T08:56:10;100256.81;;;4.41;100.00
24858;BME280;12935;50.782;6.074;2023-01-31T08:58:38;100259.16;;;4.31;100.00
24858;BME280;12935;50.782;6.074;2023-01-31T09:01:13;100247.84;;;4.49;100.00
24858;BME280;12935;50.782;6.074;2023-01-31T09:03:40;100246.06;;;4.53;100.00
24858;BME280;12935;50.782;6.074;2023-01-31T09:06:07;100254.63;;;4.55;100.00
24858;BME280;12935;50.782;6.074;2023-01-31T09:08:33;100262.31;;;4.66;100.00
24858;BME280;12935;50.782;6.074;2023-01-31T09:10:58;100251.22;;;4.58;100.00
24858;BME280;12935;50.782;6.074;2023-01-31T09:13:28;100268.84;;;4.65;100.00
24858;BME280;12935;50.782;6.074;2023-01-31T09:16:05;100250.22;;;4.51;100.00
24858;BME280;12935;50.782;6.074;2023-01-31T09:18:36;100245.50;;;4.60;100.00
24858;BME280;12935;50.782;6.074;2023-01-31T09:21:06;100234.13;;;4.67;100.00
24858;BME280;12935;50.782;6.074;2023-01-31T09:23:32;100234.31;;;4.62;100.00
24858;BME280;12935;50.782;6.074;2023-01-31T09:25:57;100225.75;;;4.59;100.00
24858;BME280;12935;50.782;6.074;2023-01-31T09:28:23;100223.63;;;4.53;100.00
24858;BME280;12935;50.782;6.074;2023-01-31T09:30:49;100230.59;;;4.54;100.00
24858;BME280;12935;50.782;6.074;2023-01-31T09:33:18;100242.97;;;4.43;100.00
24858;BME280;12935;50.782;6.074;2023-01-31T09:35:57;100234.47;;;4.65;100.00
24858;BME280;12935;50.782;6.074;2023-01-31T09:38:23;100226.41;;;4.56;100.00
24858;BME280;12935;50.782;6.074;2023-01-31T09:40:48;100226.97;;;4.50;100.00
24858;BME280;12935;50.782;6.074;2023-01-31T09:43:15;100216.84;;;4.59;100.00
24858;BME280;12935;50.782;6.074;2023-01-31T09:45:43;100230.31;;;4.80;100.00
24858;BME280;12935;50.782;6.074;2023-01-31T09:48:16;100237.38;;;4.72;100.00
24858;BME280;12935;50.782;6.074;2023-01-31T09:50:49;100223.88;;;4.97;100.00
24858;BME280;12935;50.782;6.074;2023-01-31T09:53:18;100231.34;;;5.00;100.00
24858;BME280;12935;50.782;6.074;2023-01-31T10:07:03;100203.88;;;5.38;100.00
24858;BME280;12935;50.782;6.074;2023-01-31T10:09:45;100191.47;;;5.37;100.00
24858;BME280;12935;50.782;6.074;2023-01-31T10:15:02;100210.34;;;5.33;100.00
24858;BME280;12935;50.782;6.074;2023-01-31T10:17:37;100201.66;;;5.15;100.00
24858;BME280;12935;50.782;6.074;2023-01-31T10:20:33;100202.09;;;5.05;100.00
24858;BME280;12935;50.782;6.074;2023-01-31T10:25:33;100197.78;;;5.41;100.00
24858;BME280;12935;50.782;6.074;2023-01-31T10:30:50;100197.09;;;5.44;100.00
24858;BME280;12935;50.782;6.074;2023-01-31T10:36:04;100176.66;;;5.46;100.00
24858;BME280;12935;50.782;6.074;2023-01-31T10:38:54;100167.44;;;5.23;100.00
24858;BME280;12935;50.782;6.074;2023-01-31T10:41:37;100158.81;;;5.45;100.00
24858;BME280;12935;50.782;6.074;2023-01-31T10:44:06;100163.63;;;5.52;100.00
24858;BME280;12935;50.782;6.074;2023-01-31T10:46:37;100176.63;;;5.58;100.00
24858;BME280;12935;50.782;6.074;2023-01-31T10:49:02;100179.03;;;5.36;100.00
24858;BME280;12935;50.782;6.074;2023-01-31T10:54:49;100159.91;;;5.56;100.00
24858;BME280;12935;50.782;6.074;2023-01-31T10:57:18;100145.59;;;5.44;100.00
24858;BME280;12935;50.782;6.074;2023-01-31T10:59:45;100140.19;;;5.44;100.00
24858;BME280;12935;50.782;6.074;2023-01-31T11:02:25;100133.06;;;5.39;100.00
24858;BME280;12935;50.782;6.074;2023-01-31T11:04:57;100138.44;;;5.51;100.00
24858;BME280;12935;50.782;6.074;2023-01-31T11:07:23;100145.88;;;5.67;100.00
24858;BME280;12935;50.782;6.074;2023-01-31T11:09:51;100129.66;;;5.82;100.00
24858;BME280;12935;50.782;6.074;2023-01-31T11:12:19;100133.13;;;5.83;100.00
24858;BME280;12935;50.782;6.074;2023-01-31T11:14:44;100121.22;;;5.72;100.00
24858;BME280;12935;50.782;6.074;2023-01-31T11:17:16;100121.91;;;5.41;100.00
24858;BME280;12935;50.782;6.074;2023-01-31T11:19:48;100098.97;;;5.38;100.00
24858;BME280;12935;50.782;6.074;2023-01-31T11:22:25;100100.03;;;5.61;100.00
24858;BME280;12935;50.782;6.074;2023-01-31T11:24:52;100102.19;;;5.56;100.00
24858;BME280;12935;50.782;6.074;2023-01-31T11:27:28;100107.72;;;5.59;100.00
24858;BME280;12935;50.782;6.074;2023-01-31T11:29:55;100089.22;;;5.77;100.00
24858;BME280;12935;50.782;6.074;2023-01-31T11:32:27;100091.78;;;5.86;100.00
24858;BME280;12935;50.782;6.074;2023-01-31T11:34:56;100068.47;;;5.97;100.00
24858;BME280;12935;50.782;6.074;2023-01-31T11:37:21;100079.31;;;5.69;100.00
24858;BME280;12935;50.782;6.074;2023-01-31T11:39:55;100069.94;;;5.51;100.00
24858;BME280;12935;50.782;6.074;2023-01-31T11:42:21;100068.25;;;5.46;100.00
24858;BME280;12935;50.782;6.074;2023-01-31T11:45:01;100078.09;;;5.39;100.00
24858;BME280;12935;50.782;6.074;2023-01-31T11:47:50;100064.53;;;5.39;100.00
24858;BME280;12935;50.782;6.074;2023-01-31T11:50:19;100076.50;;;5.38;100.00
24858;BME280;12935;50.782;6.074;2023-01-31T11:52:45;100078.28;;;5.18;100.00
24858;BME280;12935;50.782;6.074;2023-01-31T11:55:16;100079.88;;;5.19;100.00
24858;BME280;12935;50.782;6.074;2023-01-31T11:57:42;100067.53;;;5.21;100.00
24858;BME280;12935;50.782;6.074;2023-01-31T12:00:26;100055.88;;;5.33;100.00
24858;BME280;12935;50.782;6.074;2023-01-31T12:03:13;100064.81;;;5.34;100.00
24858;BME280;12935;50.782;6.074;2023-01-31T12:05:44;100059.16;;;5.54;100.00
24858;BME280;12935;50.782;6.074;2023-01-31T12:08:34;100046.75;;;5.81;100.00
24858;BME280;12935;50.782;6.074;2023-01-31T12:13:53;100037.75;;;5.49;100.00
24858;BME280;12935;50.782;6.074;2023-01-31T12:16:25;100047.03;;;5.36;100.00
24858;BME280;12935;50.782;6.074;2023-01-31T12:21:50;100042.47;;;5.52;100.00
24858;BME280;12935;50.782;6.074;2023-01-31T12:24:24;100047.34;;;5.47;100.00
24858;BME280;12935;50.782;6.074;2023-01-31T12:26:58;100044.09;;;5.41;100.00
24858;BME280;12935;50.782;6.074;2023-01-31T12:30:05;100046.41;;;5.55;100.00
24858;BME280;12935;50.782;6.074;2023-01-31T12:42:59;100035.66;;;5.58;100.00
24858;BME280;12935;50.782;6.074;2023-01-31T12:45:51;100040.44;;;5.77;100.00
24858;BME280;12935;50.782;6.074;2023-01-31T12:48:36;100045.53;;;5.51;100.00
24858;BME280;12935;50.782;6.074;2023-01-31T12:51:41;100034.00;;;5.70;100.00
24858;BME280;12935;50.782;6.074;2023-01-31T12:54:23;100040.03;;;5.47;100.00
24858;BME280;12935;50.782;6.074;2023-01-31T12:57:13;100039.94;;;5.59;100.00
24858;BME280;12935;50.782;6.074;2023-01-31T12:59:55;100036.72;;;5.70;100.00
24858;BME280;12935;50.782;6.074;2023-01-31T13:02:40;100039.50;;;5.57;100.00
24858;BME280;12935;50.782;6.074;2023-01-31T13:05:23;100044.16;;;5.73;100.00
24858;BME280;12935;50.782;6.074;2023-01-31T13:07:55;100042.16;;;5.85;100.00
24858;BME280;12935;50.782;6.074;2023-01-31T13:10:45;100040.78;;;5.76;100.00
24858;BME280;12935;50.782;6.074;2023-01-31T13:13:52;100026.88;;;5.77;100.00
24858;BME280;12935;50.782;6.074;2023-01-31T13:16:39;100015.91;;;5.74;100.00
24858;BME280;12935;50.782;6.074;2023-01-31T13:19:12;100019.78;;;5.73;100.00
24858;BME280;12935;50.782;6.074;2023-01-31T13:21:44;100024.41;;;5.72;100.00
24858;BME280;12935;50.782;6.074;2023-01-31T13:24:16;100029.22;;;5.79;100.00
24858;BME280;12935;50.782;6.074;2023-01-31T13:26:47;100032.19;;;5.74;100.00
24858;BME280;12935;50.782;6.074;2023-01-31T13:29:37;100022.94;;;5.75;100.00
24858;BME280;12935;50.782;6.074;2023-01-31T13:32:15;100033.06;;;5.78;100.00
24858;BME280;12935;50.782;6.074;2023-01-31T13:37:15;100041.50;;;5.88;100.00
24858;BME280;12935;50.782;6.074;2023-01-31T13:39:49;100049.06;;;5.83;100.00
24858;BME280;12935;50.782;6.074;2023-01-31T13:42:15;100036.13;;;5.76;100.00
24858;BME280;12935;50.782;6.074;2023-01-31T13:44:41;100034.31;;;5.80;100.00
24858;BME280;12935;50.782;6.074;2023-01-31T13:47:15;100030.47;;;5.81;100.00
24858;BME280;12935;50.782;6.074;2023-01-31T13:52:24;100036.72;;;5.70;100.00
24858;BME280;12935;50.782;6.074;2023-01-31T13:54:59;100039.00;;;5.83;100.00
24858;BME280;12935;50.782;6.074;2023-01-31T13:57:31;100032.19;;;5.74;100.00
24858;BME280;12935;50.782;6.074;2023-01-31T14:00:08;100032.13;;;5.86;100.00
24858;BME280;12935;50.782;6.074;2023-01-31T14:02:35;100025.03;;;5.66;100.00